Time;durP1;ratioP1;P1;durP2;ratioP2;P2;SDS_P1;SDS_P2;PMS_P1;PMS_P2;Temp;Humidity;BMP_temperature;BMP_pressure;BME280_temperature;BME280_humidity;BME280_pressure;Samples;Min_cycle;Max_cycle;Signal;HPM_P1;HPM_P2
2023/10/28 00:01:30;;;;;;;;;;;;;;;-140.72;100.00;61414.47;5070201;28;20231;-72
2023/10/28 00:03:56;;;;;;;;;;;;;;;-140.72;100.00;61400.22;5071148;28;19924;-72
2023/10/28 00:06:21;;;;;;;;;;;;;;;-140.72;100.00;61416.50;5072232;28;19965;-72
2023/10/28 00:08:47;;;;;;;;;;;;;;;-140.72;100.00;61430.72;5071572;28;19917;-72
2023/10/28 00:11:12;;;;;;;;;;;;;;;-140.72;100.00;61373.78;5071686;28;19924;-72
2023/10/28 00:13:39;;;;;;;;;;;;;;;-140.72;100.00;61414.47;5066256;28;19920;-72
2023/10/28 00:16:05;;;;;;;;;;;;;;;-140.72;100.00;61426.66;5069758;28;19916;-72
2023/10/28 00:18:31;;;;;;;;;;;;;;;-140.72;100.00;61430.72;5064156;28;19923;-72
2023/10/28 00:20:56;;;;;;;;;;;;;;;-140.72;100.00;61392.09;5069259;28;20011;-72
2023/10/28 00:23:22;;;;;;;;;;;;;;;-140.72;100.00;61422.59;5079096;28;19919;-72
2023/10/28 00:25:47;;;;;;;;;;;;;;;-140.72;100.00;61412.44;5075033;28;19959;-72
2023/10/28 00:28:13;;;;;;;;;;;;;;;-140.72;100.00;61398.19;5072727;28;20405;-72
2023/10/28 00:30:39;;;;;;;;;;;;;;;-140.72;100.00;61371.75;5061011;28;19920;-72
2023/10/28 00:33:04;;;;;;;;;;;;;;;-140.72;100.00;61386.00;5072800;28;19927;-72
2023/10/28 00:35:30;;;;;;;;;;;;;;;-140.72;100.00;61398.19;5078924;28;19916;-72
2023/10/28 00:37:55;;;;;;;;;;;;;;;-140.72;100.00;61410.38;5076997;28;20354;-72
2023/10/28 00:40:24;;;;;;;;;;;;;;;-140.72;100.00;61341.25;5075485;28;19924;-72
2023/10/28 00:42:49;;;;;;;;;;;;;;;-140.72;100.00;61379.88;5075024;28;19920;-71
2023/10/28 00:45:15;;;;;;;;;;;;;;;-140.72;100.00;61337.19;5082013;28;20011;-72
2023/10/28 00:47:44;;;;;;;;;;;;;;;-140.72;100.00;61351.41;5074596;28;19927;-72
2023/10/28 00:50:10;;;;;;;;;;;;;;;-140.72;100.00;61300.56;5070957;28;19920;-72
2023/10/28 00:52:37;;;;;;;;;;;;;;;-140.72;100.00;61390.06;5070438;28;19924;-72
2023/10/28 00:55:02;;;;;;;;;;;;;;;-140.72;100.00;61337.19;5066735;28;19925;-72
2023/10/28 00:57:28;;;;;;;;;;;;;;;-140.72;100.00;61333.09;5068981;28;20370;-72
2023/10/28 00:59:53;;;;;;;;;;;;;;;-140.72;100.00;61302.59;5074495;28;19916;-72
2023/10/28 01:02:19;;;;;;;;;;;;;;;-140.72;100.00;61347.34;5077447;28;19928;-72
2023/10/28 01:04:44;;;;;;;;;;;;;;;-140.72;100.00;61286.34;5085957;28;19917;-72
2023/10/28 01:07:10;;;;;;;;;;;;;;;-140.72;100.00;61324.97;5066661;28;20551;-72
2023/10/28 01:09:47;;;;;;;;;;;;;;;-140.72;100.00;61312.78;5076160;28;19927;-72
2023/10/28 01:12:14;;;;;;;;;;;;;;;-140.72;100.00;61278.19;5073549;28;20295;-72
2023/10/28 01:14:39;;;;;;;;;;;;;;;-140.72;100.00;61324.97;5074677;28;19986;-72
2023/10/28 01:17:05;;;;;;;;;;;;;;;-140.72;100.00;61339.22;5073318;28;19917;-72
2023/10/28 01:19:31;;;;;;;;;;;;;;;-140.72;100.00;61300.56;5076778;28;19983;-72
2023/10/28 01:21:56;;;;;;;;;;;;;;;-140.72;100.00;61298.53;5077069;28;20021;-72
2023/10/28 01:24:21;;;;;;;;;;;;;;;-140.72;100.00;61276.16;5066958;28;19943;-72
2023/10/28 01:26:46;;;;;;;;;;;;;;;-140.72;100.00;61296.50;5076577;28;19971;-72
2023/10/28 01:29:12;;;;;;;;;;;;;;;-140.72;100.00;61278.19;5072372;28;20294;-71
2023/10/28 01:31:37;;;;;;;;;;;;;;;-140.72;100.00;61310.75;5070821;28;19920;-72
2023/10/28 01:34:03;;;;;;;;;;;;;;;-140.72;100.00;61329.03;5072138;28;20039;-72
2023/10/28 01:36:29;;;;;;;;;;;;;;;-140.72;100.00;61324.97;5072884;28;19951;-73
2023/10/28 01:38:56;;;;;;;;;;;;;;;-140.72;100.00;61359.53;5072744;28;20367;-72
2023/10/28 01:41:22;;;;;;;;;;;;;;;-140.72;100.00;61324.97;5065788;28;20029;-72
2023/10/28 01:43:47;;;;;;;;;;;;;;;-140.72;100.00;61324.97;5073113;28;19920;-72
2023/10/28 01:46:12;;;;;;;;;;;;;;;-140.72;100.00;61355.47;5073603;28;19916;-71
2023/10/28 01:48:37;;;;;;;;;;;;;;;-140.72;100.00;61327.00;5071326;28;19966;-72
2023/10/28 01:51:03;;;;;;;;;;;;;;;-140.72;100.00;61322.94;5070279;28;20024;-72
2023/10/28 01:53:29;;;;;;;;;;;;;;;-140.72;100.00;61300.56;5069785;28;19920;-72
2023/10/28 01:55:55;;;;;;;;;;;;;;;-140.72;100.00;61280.22;5072546;28;19924;-71
2023/10/28 01:58:21;;;;;;;;;;;;;;;-140.72;100.00;61306.66;5071325;28;19917;-72
2023/10/28 02:00:46;;;;;;;;;;;;;;;-140.72;100.00;61288.38;5072450;28;19920;-72
2023/10/28 02:03:11;;;;;;;;;;;;;;;-140.72;100.00;61304.63;5071672;28;20015;-72
2023/10/28 02:05:37;;;;;;;;;;;;;;;-140.72;100.00;61302.59;5072483;28;19920;-72
2023/10/28 02:08:03;;;;;;;;;;;;;;;-140.72;100.00;61286.34;5069666;28;20015;-72
2023/10/28 02:10:28;;;;;;;;;;;;;;;-140.72;100.00;61296.50;5072724;28;19923;-72
2023/10/28 02:12:53;;;;;;;;;;;;;;;-140.72;100.00;61257.88;5072413;28;20277;-72
2023/10/28 02:15:19;;;;;;;;;;;;;;;-140.72;100.00;61280.22;5070486;28;20366;-77
2023/10/28 02:17:46;;;;;;;;;;;;;;;-140.72;100.00;61249.72;5068611;28;19924;-72
2023/10/28 02:20:13;;;;;;;;;;;;;;;-140.72;100.00;61268.03;5059266;28;19928;-72
2023/10/28 02:22:39;;;;;;;;;;;;;;;-140.72;100.00;61221.25;5073344;28;19924;-72
2023/10/28 02:25:04;;;;;;;;;;;;;;;-140.72;100.00;61243.63;5065972;28;19916;-72
2023/10/28 02:27:29;;;;;;;;;;;;;;;-140.72;100.00;61227.34;5071985;28;20007;-72
2023/10/28 02:29:55;;;;;;;;;;;;;;;-140.72;100.00;61239.56;5071697;28;19994;-72
2023/10/28 02:32:20;;;;;;;;;;;;;;;-140.72;100.00;61239.56;5070878;28;19927;-72
2023/10/28 02:34:45;;;;;;;;;;;;;;;-140.72;100.00;61190.75;5070573;28;20298;-72
2023/10/28 02:37:11;;;;;;;;;;;;;;;-140.72;100.00;61221.25;5065524;28;19916;-72
2023/10/28 02:39:37;;;;;;;;;;;;;;;-140.72;100.00;61198.88;5073815;28;19920;-71
2023/10/28 02:42:02;;;;;;;;;;;;;;;-140.72;100.00;61190.75;5072377;28;20362;-72
2023/10/28 02:44:30;;;;;;;;;;;;;;;-140.72;100.00;61178.56;5069005;28;19916;-72
2023/10/28 02:46:56;;;;;;;;;;;;;;;-140.72;100.00;61166.34;5073825;28;19920;-72
2023/10/28 02:49:21;;;;;;;;;;;;;;;-140.72;100.00;61194.81;5081219;28;19917;-72
2023/10/28 02:51:46;;;;;;;;;;;;;;;-140.72;100.00;61178.56;5076432;28;19958;-72
2023/10/28 02:54:13;;;;;;;;;;;;;;;-140.72;100.00;61164.31;5074023;28;19917;-72
2023/10/28 02:56:38;;;;;;;;;;;;;;;-140.72;100.00;61170.41;5073910;28;19927;-72
2023/10/28 02:59:05;;;;;;;;;;;;;;;-140.72;100.00;61164.31;5068568;28;20275;-72
2023/10/28 03:01:31;;;;;;;;;;;;;;;-140.72;100.00;61182.63;5081767;28;19916;-72
2023/10/28 03:03:56;;;;;;;;;;;;;;;-140.72;100.00;61160.25;5070958;28;19927;-72
2023/10/28 03:06:21;;;;;;;;;;;;;;;-140.72;100.00;61141.94;5072596;28;19955;-72
2023/10/28 03:08:46;;;;;;;;;;;;;;;-140.72;100.00;61146.00;5072264;28;19959;-72
2023/10/28 03:11:11;;;;;;;;;;;;;;;-140.72;100.00;61109.41;5068958;28;20081;-72
2023/10/28 03:13:37;;;;;;;;;;;;;;;-140.72;100.00;61141.94;5071072;28;19971;-72
2023/10/28 03:16:04;;;;;;;;;;;;;;;-140.72;100.00;61139.91;5082877;28;19916;-72
2023/10/28 03:18:29;;;;;;;;;;;;;;;-140.72;100.00;61158.22;5074304;28;19973;-72
2023/10/28 03:20:56;;;;;;;;;;;;;;;-140.72;100.00;61064.66;5072376;28;20091;-72
2023/10/28 03:23:22;;;;;;;;;;;;;;;-140.72;100.00;61080.94;5072803;28;20016;-72
2023/10/28 03:25:47;;;;;;;;;;;;;;;-140.72;100.00;61040.28;5081826;28;20336;-72
2023/10/28 03:28:12;;;;;;;;;;;;;;;-140.72;100.00;61034.16;5075101;28;19916;-72
2023/10/28 03:30:38;;;;;;;;;;;;;;;-140.72;100.00;61026.03;5070916;28;20263;-72
2023/10/28 03:33:03;;;;;;;;;;;;;;;-140.72;100.00;61072.81;5072071;28;19981;-72
2023/10/28 03:35:28;;;;;;;;;;;;;;;-140.72;100.00;61072.81;5062765;28;19917;-72
2023/10/28 03:37:55;;;;;;;;;;;;;;;-140.72;100.00;61046.38;5072176;28;20015;-72
2023/10/28 03:40:20;;;;;;;;;;;;;;;-140.72;100.00;61078.91;5077159;28;20026;-72
2023/10/28 03:42:45;;;;;;;;;;;;;;;-140.72;100.00;61048.41;5071995;28;20023;-72
2023/10/28 03:45:11;;;;;;;;;;;;;;;-140.72;100.00;61034.16;5072367;28;20379;-73
2023/10/28 03:47:38;;;;;;;;;;;;;;;-140.72;100.00;60973.16;5072352;28;20236;-72
2023/10/28 03:50:04;;;;;;;;;;;;;;;-140.72;100.00;60960.97;5070777;28;20035;-72
2023/10/28 03:52:29;;;;;;;;;;;;;;;-140.72;100.00;60930.47;5071321;28;19917;-72
2023/10/28 03:54:55;;;;;;;;;;;;;;;-140.72;100.00;60869.44;5075456;28;19925;-72
2023/10/28 03:57:21;;;;;;;;;;;;;;;-140.72;100.00;60853.19;5072363;28;20294;-72
2023/10/28 03:59:48;;;;;;;;;;;;;;;-140.72;100.00;60779.97;5070023;28;19921;-72
2023/10/28 04:02:13;;;;;;;;;;;;;;;-140.72;100.00;60792.19;5070436;28;20015;-72
2023/10/28 04:04:38;;;;;;;;;;;;;;;-140.72;100.00;60755.59;5073826;28;19952;-72
2023/10/28 04:07:04;;;;;;;;;;;;;;;-140.72;100.00;60753.56;5072049;28;20019;-72
2023/10/28 04:09:29;;;;;;;;;;;;;;;-140.72;100.00;60678.31;5070593;28;20103;-72
2023/10/28 04:11:54;;;;;;;;;;;;;;;-140.72;100.00;60643.75;5071696;28;19943;-72
2023/10/28 04:14:19;;;;;;;;;;;;;;;-140.72;100.00;60645.78;5071725;28;19924;-72
2023/10/28 04:16:45;;;;;;;;;;;;;;;-140.72;100.00;60594.94;5061818;28;19932;-72
2023/10/28 04:19:10;;;;;;;;;;;;;;;-140.72;100.00;60556.31;5071112;28;19924;-72
2023/10/28 04:21:35;;;;;;;;;;;;;;;-140.72;100.00;60552.25;5068935;28;19971;-72
2023/10/28 04:24:01;;;;;;;;;;;;;;;-140.72;100.00;60477.00;5061549;28;19917;-71
2023/10/28 04:26:26;;;;;;;;;;;;;;;-140.72;100.00;60517.69;5073367;28;19927;-72
2023/10/28 04:28:51;;;;;;;;;;;;;;;-140.72;100.00;60477.00;5070286;28;19924;-72
2023/10/28 04:31:16;;;;;;;;;;;;;;;-140.72;100.00;60387.56;5069182;28;20051;-72
2023/10/28 04:33:42;;;;;;;;;;;;;;;-140.72;100.00;60428.22;5072232;28;19916;-72
2023/10/28 04:36:09;;;;;;;;;;;;;;;-140.72;100.00;60416.03;5085204;28;19917;-72
2023/10/28 04:38:40;;;;;;;;;;;;;;;-140.72;100.00;60405.84;5080934;28;19917;-73
2023/10/28 04:41:05;;;;;;;;;;;;;;;-140.72;100.00;60426.19;5063450;28;19932;-72
2023/10/28 04:43:30;;;;;;;;;;;;;;;-140.72;100.00;60369.25;5068851;28;19928;-72
2023/10/28 04:45:55;;;;;;;;;;;;;;;-140.72;100.00;60401.78;5065177;28;19924;-72
2023/10/28 04:48:27;;;;;;;;;;;;;;;-140.72;100.00;60363.16;5060483;28;19988;-72
2023/10/28 04:50:52;;;;;;;;;;;;;;;-140.72;100.00;60363.16;5067383;28;19921;-72
2023/10/28 04:53:17;;;;;;;;;;;;;;;-140.72;100.00;60377.38;5066071;28;19967;-72
2023/10/28 04:55:43;;;;;;;;;;;;;;;-140.72;100.00;60381.44;5068200;28;19978;-71
2023/10/28 04:58:10;;;;;;;;;;;;;;;-140.72;100.00;60330.63;5067925;28;20272;-71
2023/10/28 05:00:35;;;;;;;;;;;;;;;-140.72;100.00;60397.72;5072899;28;19928;-72
2023/10/28 05:03:01;;;;;;;;;;;;;;;-140.72;100.00;60346.88;5073035;28;19920;-71
2023/10/28 05:05:26;;;;;;;;;;;;;;;-140.72;100.00;60363.16;5071313;28;20375;-72
2023/10/28 05:07:51;;;;;;;;;;;;;;;-140.72;100.00;60413.97;5073316;28;19924;-72
2023/10/28 05:10:17;;;;;;;;;;;;;;;-140.72;100.00;60409.91;5074627;28;19944;-72
2023/10/28 05:12:42;;;;;;;;;;;;;;;-140.72;100.00;60375.34;5074783;28;19968;-71
2023/10/28 05:15:08;;;;;;;;;;;;;;;-140.72;100.00;60369.25;5073729;28;19931;-71
2023/10/28 05:17:33;;;;;;;;;;;;;;;-140.72;100.00;60363.16;5072092;28;20372;-72
2023/10/28 05:19:59;;;;;;;;;;;;;;;-140.72;100.00;60379.41;5074179;28;20065;-72
2023/10/28 05:22:24;;;;;;;;;;;;;;;-140.72;100.00;60367.22;5072455;28;19921;-72
2023/10/28 05:24:52;;;;;;;;;;;;;;;-140.72;100.00;60355.03;5072021;28;20013;-71
2023/10/28 05:27:17;;;;;;;;;;;;;;;-140.72;100.00;60377.38;5072181;28;20365;-73
2023/10/28 05:29:43;;;;;;;;;;;;;;;-140.72;100.00;60401.78;5069230;28;19920;-73
2023/10/28 05:32:08;;;;;;;;;;;;;;;-140.72;100.00;60409.91;5075469;28;20315;-73
2023/10/28 05:34:33;;;;;;;;;;;;;;;-140.72;100.00;60387.56;5073699;28;19923;-72
2023/10/28 05:36:59;;;;;;;;;;;;;;;-140.72;100.00;60448.56;5075565;28;19920;-73
2023/10/28 05:39:24;;;;;;;;;;;;;;;-140.72;100.00;60454.66;5070803;28;19924;-72
2023/10/28 05:41:50;;;;;;;;;;;;;;;-140.72;100.00;60458.72;5067728;28;19924;-73
2023/10/28 05:44:15;;;;;;;;;;;;;;;-140.72;100.00;60499.38;5068896;28;20011;-71
2023/10/28 05:46:40;;;;;;;;;;;;;;;-140.72;100.00;60481.09;5068601;28;19921;-73
2023/10/28 05:49:06;;;;;;;;;;;;;;;-140.72;100.00;60495.31;5067044;28;19924;-71
2023/10/28 05:51:35;;;;;;;;;;;;;;;-140.72;100.00;60491.25;5066440;28;19925;-71
2023/10/28 05:54:01;;;;;;;;;;;;;;;-140.72;100.00;60499.38;5069171;28;20006;-71
2023/10/28 05:56:27;;;;;;;;;;;;;;;-140.72;100.00;60519.72;5065159;28;20031;-72
2023/10/28 05:58:53;;;;;;;;;;;;;;;-140.72;100.00;60489.22;5066233;28;20336;-71
2023/10/28 06:01:18;;;;;;;;;;;;;;;-140.72;100.00;60525.81;5068485;28;19921;-72
2023/10/28 06:03:43;;;;;;;;;;;;;;;-140.72;100.00;60519.72;5073550;28;20398;-72
2023/10/28 06:06:08;;;;;;;;;;;;;;;-140.72;100.00;60558.34;5074270;28;19940;-72
2023/10/28 06:08:33;;;;;;;;;;;;;;;-140.72;100.00;60540.03;5070091;28;19920;-71
2023/10/28 06:10:59;;;;;;;;;;;;;;;-140.72;100.00;60523.78;5068742;28;20398;-72
2023/10/28 06:13:25;;;;;;;;;;;;;;;-140.72;100.00;60568.50;5067219;28;19963;-72
2023/10/28 06:15:50;;;;;;;;;;;;;;;-140.72;100.00;60580.72;5067283;28;19924;-73
2023/10/28 06:18:15;;;;;;;;;;;;;;;-140.72;100.00;60578.69;5070772;28;20329;-73
2023/10/28 06:20:40;;;;;;;;;;;;;;;-140.72;100.00;60562.41;5072733;28;20244;-72
2023/10/28 06:23:06;;;;;;;;;;;;;;;-140.72;100.00;60540.03;5071658;28;20345;-72
2023/10/28 06:25:31;;;;;;;;;;;;;;;-140.72;100.00;60566.47;5072437;28;19924;-72
2023/10/28 06:27:57;;;;;;;;;;;;;;;-140.72;100.00;60568.50;5068225;28;20342;-72
2023/10/28 06:30:22;;;;;;;;;;;;;;;-140.72;100.00;60592.91;5071689;28;19947;-72
2023/10/28 06:32:47;;;;;;;;;;;;;;;-140.72;100.00;60596.97;5067367;28;19952;-72
2023/10/28 06:35:13;;;;;;;;;;;;;;;-140.72;100.00;60554.28;5070049;28;19965;-71
2023/10/28 06:37:39;;;;;;;;;;;;;;;-140.72;100.00;60564.44;5066742;28;19928;-72
2023/10/28 06:40:06;;;;;;;;;;;;;;;-140.72;100.00;60564.44;5064566;28;19961;-72
2023/10/28 06:42:31;;;;;;;;;;;;;;;-140.72;100.00;60605.13;5070242;28;20013;-73
2023/10/28 06:44:57;;;;;;;;;;;;;;;-140.72;100.00;60560.38;5066678;28;19960;-72
2023/10/28 06:47:22;;;;;;;;;;;;;;;-140.72;100.00;60544.13;5069366;28;19920;-71
2023/10/28 06:49:47;;;;;;;;;;;;;;;-140.72;100.00;60542.09;5064767;28;19921;-72
2023/10/28 06:52:13;;;;;;;;;;;;;;;-140.72;100.00;60533.94;5067233;28;19921;-71
2023/10/28 06:54:38;;;;;;;;;;;;;;;-140.72;100.00;60538.00;5063283;28;20045;-72
2023/10/28 06:57:03;;;;;;;;;;;;;;;-140.72;100.00;60544.13;5066875;28;20011;-71
2023/10/28 06:59:29;;;;;;;;;;;;;;;-140.72;100.00;60523.78;5071098;28;20491;-71
2023/10/28 07:01:54;;;;;;;;;;;;;;;-140.72;100.00;60509.53;5072346;28;20234;-71
2023/10/28 07:04:19;;;;;;;;;;;;;;;-140.72;100.00;60493.28;5073033;28;20422;-72
2023/10/28 07:06:44;;;;;;;;;;;;;;;-140.72;100.00;60489.22;5069406;28;20014;-71
2023/10/28 07:09:09;;;;;;;;;;;;;;;-140.72;100.00;60505.47;5066233;28;19921;-72
2023/10/28 07:11:35;;;;;;;;;;;;;;;-140.72;100.00;60460.75;5064372;28;19925;-72
2023/10/28 07:14:00;;;;;;;;;;;;;;;-140.72;100.00;60438.38;5068683;28;19924;-71
2023/10/28 07:16:27;;;;;;;;;;;;;;;-140.72;100.00;60468.88;5069778;28;20004;-72
2023/10/28 07:18:52;;;;;;;;;;;;;;;-140.72;100.00;60446.53;5075153;28;19931;-72
2023/10/28 07:21:17;;;;;;;;;;;;;;;-140.72;100.00;60418.06;5061091;28;20027;-72
2023/10/28 07:23:42;;;;;;;;;;;;;;;-140.72;100.00;60442.44;5072012;28;20331;-72
2023/10/28 07:26:08;;;;;;;;;;;;;;;-140.72;100.00;60389.59;5069522;28;19920;-72
2023/10/28 07:28:36;;;;;;;;;;;;;;;-140.72;100.00;60383.50;5065554;28;19928;-72
2023/10/28 07:31:01;;;;;;;;;;;;;;;-140.72;100.00;60377.38;5061503;28;19921;-72
2023/10/28 07:33:27;;;;;;;;;;;;;;;-140.72;100.00;60369.25;5063832;28;19924;-72
2023/10/28 07:35:52;;;;;;;;;;;;;;;-140.72;100.00;60328.59;5065135;28;20323;-72
2023/10/28 07:38:18;;;;;;;;;;;;;;;-140.72;100.00;60348.94;5066442;28;19927;-72
2023/10/28 07:40:44;;;;;;;;;;;;;;;-140.72;100.00;60279.78;5068150;28;19920;-75
2023/10/28 07:43:12;;;;;;;;;;;;;;;-140.72;100.00;60251.34;5072112;28;19927;-79
2023/10/28 07:45:41;;;;;;;;;;;;;;;-140.72;100.00;60239.13;5069690;28;19972;-74
2023/10/28 07:48:07;;;;;;;;;;;;;;;-140.72;100.00;60198.47;5069629;28;19920;-72
2023/10/28 07:50:35;;;;;;;;;;;;;;;-140.72;100.00;60161.88;5069580;28;19974;-72
2023/10/28 07:53:01;;;;;;;;;;;;;;;-140.72;100.00;60161.88;5058720;28;20003;-71
2023/10/28 07:55:26;;;;;;;;;;;;;;;-140.72;100.00;60113.06;5070282;28;20609;-72
2023/10/28 07:57:52;;;;;;;;;;;;;;;-140.72;100.00;60041.91;5070384;28;19916;-72
2023/10/28 08:00:17;;;;;;;;;;;;;;;-140.72;100.00;60033.78;5071301;28;19962;-72
2023/10/28 08:02:43;;;;;;;;;;;;;;;-140.72;100.00;59974.84;5070746;28;19916;-70
2023/10/28 08:05:10;;;;;;;;;;;;;;;-140.72;100.00;59999.22;5069055;28;19921;-71
2023/10/28 08:07:35;;;;;;;;;;;;;;;-140.72;100.00;59926.03;5070629;28;19951;-71
2023/10/28 08:10:00;;;;;;;;;;;;;;;-140.72;100.00;59873.19;5072301;28;19925;-72
2023/10/28 08:12:26;;;;;;;;;;;;;;;-140.72;100.00;59889.44;5078171;28;19974;-71
2023/10/28 08:14:52;;;;;;;;;;;;;;;-140.72;100.00;59810.16;5074083;28;19928;-71
2023/10/28 08:17:17;;;;;;;;;;;;;;;-140.72;100.00;59791.88;5076054;28;19917;-71
2023/10/28 08:19:43;;;;;;;;;;;;;;;-140.72;100.00;59730.88;5070526;28;19939;-71
2023/10/28 08:22:08;;;;;;;;;;;;;;;-140.72;100.00;59728.84;5080337;28;20010;-71
2023/10/28 08:24:33;;;;;;;;;;;;;;;-140.72;100.00;59706.50;5059073;28;19964;-71
2023/10/28 08:26:58;;;;;;;;;;;;;;;-140.72;100.00;59657.69;5072868;28;19916;-71
2023/10/28 08:29:24;;;;;;;;;;;;;;;-140.72;100.00;59649.56;5086605;28;19920;-71
2023/10/28 08:31:49;;;;;;;;;;;;;;;-140.72;100.00;59606.88;5090268;28;19931;-72
2023/10/28 08:34:15;;;;;;;;;;;;;;;-140.72;100.00;59552.00;5087063;28;19930;-72
2023/10/28 08:36:41;;;;;;;;;;;;;;;-140.72;100.00;59531.66;5074532;28;19920;-72
2023/10/28 08:39:07;;;;;;;;;;;;;;;-140.72;100.00;59527.59;5078722;28;19976;-72
2023/10/28 08:41:34;;;;;;;;;;;;;;;-140.72;100.00;59462.56;5074490;28;20387;-71
2023/10/28 08:44:00;;;;;;;;;;;;;;;-140.72;100.00;59440.19;5069521;28;20290;-71
2023/10/28 08:46:26;;;;;;;;;;;;;;;-140.72;100.00;59322.28;5074374;28;19916;-71
2023/10/28 08:48:52;;;;;;;;;;;;;;;-140.72;100.00;59291.81;5078824;28;19939;-72
2023/10/28 08:51:18;;;;;;;;;;;;;;;-140.72;100.00;59243.03;5080023;28;19989;-72
2023/10/28 08:53:45;;;;;;;;;;;;;;;-140.72;100.00;59173.91;5074877;28;20031;-72
2023/10/28 08:56:12;;;;;;;;;;;;;;;-140.72;100.00;59127.16;5078952;28;19961;-72
2023/10/28 08:58:38;;;;;;;;;;;;;;;-140.72;100.00;59082.44;5070504;28;20003;-71
2023/10/28 09:01:04;;;;;;;;;;;;;;;-140.72;100.00;59001.16;5074507;28;19921;-72
2023/10/28 09:03:30;;;;;;;;;;;;;;;-140.72;100.00;58978.78;5073006;28;20046;-72
2023/10/28 09:05:56;;;;;;;;;;;;;;;-140.72;100.00;58856.84;5077671;28;19920;-72
2023/10/28 09:08:21;;;;;;;;;;;;;;;-140.72;100.00;58743.03;5079432;28;20003;-72
2023/10/28 09:10:46;;;;;;;;;;;;;;;-140.72;100.00;58726.75;5074697;28;20025;-71
2023/10/28 09:13:13;;;;;;;;;;;;;;;-140.72;100.00;58673.94;5073428;28;20343;-71
2023/10/28 09:15:39;;;;;;;;;;;;;;;-140.72;100.00;58592.63;5070274;28;20367;-71
2023/10/28 09:18:04;;;;;;;;;;;;;;;-140.72;100.00;58511.34;5078058;28;19916;-71
2023/10/28 09:20:29;;;;;;;;;;;;;;;-140.72;100.00;58446.31;5073223;28;19916;-72
2023/10/28 09:22:54;;;;;;;;;;;;;;;-140.72;100.00;58330.47;5074856;28;19928;-72
2023/10/28 09:25:21;;;;;;;;;;;;;;;-140.72;100.00;58137.44;5077131;28;19916;-71
2023/10/28 09:27:47;;;;;;;;;;;;;;;-140.72;100.00;57985.03;5069893;28;20012;-72
2023/10/28 09:30:12;;;;;;;;;;;;;;;-140.72;100.00;57944.38;5072688;28;20396;-71
2023/10/28 09:32:38;;;;;;;;;;;;;;;-140.72;100.00;57848.88;5074167;28;19924;-71
2023/10/28 09:35:07;;;;;;;;;;;;;;;-140.72;100.00;57871.22;5073808;28;19923;-71
2023/10/28 09:37:36;;;;;;;;;;;;;;;-140.72;100.00;57832.63;5070598;28;20440;-72
2023/10/28 09:40:03;;;;;;;;;;;;;;;-140.72;100.00;57794.03;5070145;28;19916;-72
2023/10/28 09:42:30;;;;;;;;;;;;;;;-140.72;100.00;57777.78;5071848;28;19970;-71
2023/10/28 09:44:55;;;;;;;;;;;;;;;-140.72;100.00;57735.09;5073076;28;19917;-71
2023/10/28 09:47:22;;;;;;;;;;;;;;;-140.72;100.00;57714.78;5074571;28;19920;-71
2023/10/28 09:49:52;;;;;;;;;;;;;;;-140.72;100.00;57755.41;5072524;28;19927;-71
2023/10/28 09:52:18;;;;;;;;;;;;;;;-140.72;100.00;57785.91;5080828;28;19917;-71
2023/10/28 09:54:44;;;;;;;;;;;;;;;-140.72;100.00;57822.47;5086156;28;20381;-72
2023/10/28 09:57:10;;;;;;;;;;;;;;;-140.72;100.00;57859.03;5074373;28;19920;-72
2023/10/28 09:59:38;;;;;;;;;;;;;;;-140.72;100.00;57830.59;5065667;28;19924;-71
2023/10/28 10:02:14;;;;;;;;;;;;;;;-140.72;100.00;57840.75;5064144;28;19965;-71
2023/10/28 10:04:49;;;;;;;;;;;;;;;-140.72;100.00;57844.81;5073966;28;19971;-73
2023/10/28 10:07:14;;;;;;;;;;;;;;;-140.72;100.00;57852.94;5075156;28;19917;-72
2023/10/28 10:09:40;;;;;;;;;;;;;;;-140.72;100.00;57873.25;5073444;28;20130;-71
2023/10/28 10:12:06;;;;;;;;;;;;;;;-140.72;100.00;57806.22;5068709;28;19929;-71
2023/10/28 10:14:31;;;;;;;;;;;;;;;-140.72;100.00;57810.28;5069324;28;19916;-72
2023/10/28 10:17:05;;;;;;;;;;;;;;;-140.72;100.00;57808.25;5072813;28;20378;-72
2023/10/28 10:19:33;;;;;;;;;;;;;;;-140.72;100.00;57814.34;5064869;28;19925;-71
2023/10/28 10:22:01;;;;;;;;;;;;;;;-140.72;100.00;57775.75;5079090;28;19991;-72
2023/10/28 10:24:28;;;;;;;;;;;;;;;-140.72;100.00;57731.03;5075448;28;20007;-71
2023/10/28 10:26:57;;;;;;;;;;;;;;;-140.72;100.00;57720.88;5072967;28;20012;-74
2023/10/28 10:29:23;;;;;;;;;;;;;;;-140.72;100.00;57726.97;5071412;28;20534;-74
2023/10/28 10:31:51;;;;;;;;;;;;;;;-140.72;100.00;57702.59;5073518;28;19939;-74
2023/10/28 10:34:30;;;;;;;;;;;;;;;-140.72;100.00;57781.84;5073528;28;19927;-74
2023/10/28 10:36:55;;;;;;;;;;;;;;;-140.72;100.00;57779.81;5073016;28;19921;-74
2023/10/28 10:39:20;;;;;;;;;;;;;;;-140.72;100.00;57702.59;5071005;28;19966;-74
2023/10/28 10:41:52;;;;;;;;;;;;;;;-140.72;100.00;57653.81;5071453;28;20331;-74
2023/10/28 10:44:25;;;;;;;;;;;;;;;-140.72;100.00;57586.78;5065856;28;19986;-74
2023/10/28 10:46:53;;;;;;;;;;;;;;;-140.72;100.00;57542.06;5070248;28;19916;-74
2023/10/28 10:49:18;;;;;;;;;;;;;;;-140.72;100.00;57442.53;5066176;28;19979;-74
2023/10/28 10:51:45;;;;;;;;;;;;;;;-140.72;100.00;57359.22;5076850;28;19927;-74
2023/10/28 10:54:10;;;;;;;;;;;;;;;-140.72;100.00;57288.13;5068310;28;19929;-74
2023/10/28 10:56:35;;;;;;;;;;;;;;;-140.72;100.00;57259.66;5083342;28;20262;-74
2023/10/28 10:59:00;;;;;;;;;;;;;;;-140.72;100.00;57221.06;5071802;28;20391;-75
2023/10/28 11:01:25;;;;;;;;;;;;;;;-140.72;100.00;57137.78;5069260;28;19924;-74
2023/10/28 11:03:51;;;;;;;;;;;;;;;-140.72;100.00;57186.53;5071693;28;19920;-75
2023/10/28 11:06:16;;;;;;;;;;;;;;;-140.72;100.00;57206.84;5069826;28;20319;-74
2023/10/28 11:08:42;;;;;;;;;;;;;;;-140.72;100.00;57180.44;5063644;28;20288;-74
2023/10/28 11:11:07;;;;;;;;;;;;;;;-140.72;100.00;57182.47;5062919;28;19916;-74
2023/10/28 11:13:32;;;;;;;;;;;;;;;-140.72;100.00;57202.78;5060113;28;19925;-74
2023/10/28 11:15:59;;;;;;;;;;;;;;;-140.72;100.00;57202.78;5070852;28;19921;-74
2023/10/28 11:18:24;;;;;;;;;;;;;;;-140.72;100.00;57206.84;5073394;28;20454;-74
2023/10/28 11:20:50;;;;;;;;;;;;;;;-140.72;100.00;57190.59;5075015;28;19931;-74
2023/10/28 11:23:18;;;;;;;;;;;;;;;-140.72;100.00;57259.66;5069813;28;19931;-74
2023/10/28 11:25:47;;;;;;;;;;;;;;;-140.72;100.00;57316.56;5064723;28;19927;-74
2023/10/28 11:28:12;;;;;;;;;;;;;;;-140.72;100.00;57304.38;5069152;28;19936;-74
2023/10/28 11:30:37;;;;;;;;;;;;;;;-140.72;100.00;57194.66;5058111;28;19927;-75
2023/10/28 11:33:09;;;;;;;;;;;;;;;-140.72;100.00;57076.84;5070844;28;19921;-74
2023/10/28 11:35:34;;;;;;;;;;;;;;;-140.72;100.00;57129.66;5083699;28;20384;-74
2023/10/28 11:38:02;;;;;;;;;;;;;;;-140.72;100.00;57019.94;5068156;28;19988;-74
2023/10/28 11:40:27;;;;;;;;;;;;;;;-140.72;100.00;57007.75;5086761;28;19968;-74
2023/10/28 11:42:53;;;;;;;;;;;;;;;-140.72;100.00;57011.81;5073444;28;20324;-74
2023/10/28 11:45:18;;;;;;;;;;;;;;;-140.72;100.00;56977.28;5072401;28;20030;-73
2023/10/28 11:47:43;;;;;;;;;;;;;;;-140.72;100.00;56898.06;5073758;28;19970;-73
2023/10/28 11:50:09;;;;;;;;;;;;;;;-140.72;100.00;56804.63;5075647;28;19920;-73
2023/10/28 11:52:34;;;;;;;;;;;;;;;-140.72;100.00;56638.03;5076209;28;19916;-73
2023/10/28 11:55:05;;;;;;;;;;;;;;;-140.72;100.00;56524.28;5083957;28;20359;-74
2023/10/28 11:57:30;;;;;;;;;;;;;;;-140.72;100.00;56406.50;5073307;28;20023;-73
2023/10/28 11:59:55;;;;;;;;;;;;;;;-140.72;100.00;56382.13;5080539;28;19924;-73
2023/10/28 12:02:20;;;;;;;;;;;;;;;-140.72;100.00;56335.41;5073378;28;20228;-73
2023/10/28 12:04:46;;;;;;;;;;;;;;;-140.72;100.00;56286.66;5073148;28;19920;-73
2023/10/28 12:07:11;;;;;;;;;;;;;;;-140.72;100.00;56304.94;5074508;28;19975;-73
2023/10/28 12:09:37;;;;;;;;;;;;;;;-140.72;100.00;56414.63;5076159;28;20095;-73
2023/10/28 12:12:05;;;;;;;;;;;;;;;-140.72;100.00;56495.88;5077880;28;20070;-73